Time;durP1;ratioP1;P1;durP2;ratioP2;P2;SDS_P1;SDS_P2;PMS_P1;PMS_P2;Temp;Humidity;BMP_temperature;BMP_pressure;BME280_temperature;BME280_humidity;BME280_pressure;Samples;Min_cycle;Max_cycle;Signal;HPM_P1;HPM_P2
2022/03/16 00:01:56;;;;;;;1.10;1.00;;;8.40;99.90;;;;;;4939094;29;20458;-76
2022/03/16 00:04:23;;;;;;;1.33;1.23;;;8.40;99.90;;;;;;4939091;29;20811;-76
2022/03/16 00:06:50;;;;;;;0.30;0.30;;;8.30;99.90;;;;;;4939307;29;20451;-77
2022/03/16 00:09:17;;;;;;;0.40;0.33;;;8.20;99.90;;;;;;4939220;29;20471;-76
2022/03/16 00:11:44;;;;;;;0.30;0.30;;;8.10;99.90;;;;;;4939878;29;20451;-76
2022/03/16 00:14:12;;;;;;;1.37;0.50;;;8.00;99.90;;;;;;4939511;29;20798;-76
2022/03/16 00:16:39;;;;;;;0.93;0.93;;;7.90;99.90;;;;;;4939140;29;20447;-76
2022/03/16 00:19:06;;;;;;;0.67;0.67;;;7.90;99.90;;;;;;4939062;29;20475;-76
2022/03/16 00:21:33;;;;;;;4.87;0.50;;;7.90;99.90;;;;;;4938975;29;20497;-76
2022/03/16 00:24:01;;;;;;;0.40;0.40;;;7.90;99.90;;;;;;4938711;29;20457;-76
2022/03/16 00:26:27;;;;;;;1.13;1.13;;;7.90;99.90;;;;;;4938698;29;20455;-77
2022/03/16 00:28:54;;;;;;;0.73;0.73;;;7.80;99.90;;;;;;4938854;29;20486;-76
2022/03/16 00:31:22;;;;;;;0.93;0.93;;;7.80;99.90;;;;;;4938542;29;20470;-76
2022/03/16 00:33:49;;;;;;;1.30;1.30;;;7.90;99.90;;;;;;4900945;29;20460;-76
2022/03/16 00:36:17;;;;;;;0.40;0.40;;;7.90;99.90;;;;;;4900621;29;20453;-76
2022/03/16 00:38:44;;;;;;;2.33;0.50;;;7.90;99.90;;;;;;4900834;29;20471;-76
2022/03/16 00:41:11;;;;;;;0.40;0.30;;;7.90;99.90;;;;;;4900825;29;20491;-76
2022/03/16 00:43:38;;;;;;;0.40;0.40;;;8.00;99.90;;;;;;4900541;29;20957;-76
2022/03/16 00:46:05;;;;;;;0.30;0.30;;;7.90;99.90;;;;;;4900754;29;20457;-76
2022/03/16 00:48:33;;;;;;;0.70;0.70;;;7.80;99.90;;;;;;4900660;29;20484;-77
2022/03/16 00:51:00;;;;;;;0.40;0.30;;;7.80;99.90;;;;;;4900677;29;20453;-76
2022/03/16 00:53:26;;;;;;;0.50;0.50;;;7.80;99.90;;;;;;4900588;29;20461;-76
2022/03/16 00:55:53;;;;;;;0.40;0.40;;;7.80;99.90;;;;;;4900593;29;20453;-76
2022/03/16 00:58:20;;;;;;;0.30;0.20;;;7.80;99.90;;;;;;4900511;29;20469;-76
2022/03/16 01:00:47;;;;;;;4.67;0.53;;;7.80;99.90;;;;;;4900468;29;21015;-76
2022/03/16 01:03:13;;;;;;;1.03;0.97;;;7.70;99.90;;;;;;4900192;29;20446;-76
2022/03/16 01:05:41;;;;;;;0.30;0.30;;;7.70;99.90;;;;;;4900420;29;20824;-76
2022/03/16 01:08:08;;;;;;;0.60;0.40;;;7.70;99.90;;;;;;4899991;29;20977;-76
2022/03/16 01:10:35;;;;;;;0.30;0.30;;;7.70;99.90;;;;;;4900337;29;20449;-76
2022/03/16 01:13:02;;;;;;;0.40;0.40;;;7.70;99.90;;;;;;4900306;29;20467;-76
2022/03/16 01:15:29;;;;;;;0.40;0.40;;;7.70;99.90;;;;;;4899939;29;20816;-76
2022/03/16 01:17:55;;;;;;;1.83;0.73;;;7.70;99.90;;;;;;4900133;29;20472;-76
2022/03/16 01:20:22;;;;;;;0.90;0.80;;;7.70;99.90;;;;;;4900095;29;20493;-76
2022/03/16 01:22:50;;;;;;;0.77;0.50;;;7.70;99.90;;;;;;4900093;29;20452;-76
2022/03/16 01:25:17;;;;;;;0.63;0.63;;;7.80;99.90;;;;;;4899758;29;20980;-76
2022/03/16 01:27:44;;;;;;;0.73;0.73;;;7.70;99.90;;;;;;4899654;29;20477;-76
2022/03/16 01:30:13;;;;;;;0.80;0.80;;;7.80;99.90;;;;;;4899955;29;20460;-76
2022/03/16 01:32:40;;;;;;;1.33;0.40;;;7.80;99.90;;;;;;4919619;29;20995;-76
2022/03/16 01:35:08;;;;;;;0.50;0.50;;;7.80;99.90;;;;;;4937370;29;20813;-76
2022/03/16 01:37:35;;;;;;;1.67;1.57;;;7.80;99.90;;;;;;4937341;29;20490;-76
2022/03/16 01:40:05;;;;;;;0.83;0.30;;;7.70;99.90;;;;;;4937585;29;20467;-76
2022/03/16 01:42:32;;;;;;;0.50;0.50;;;7.70;99.90;;;;;;4936558;29;20435;-76
2022/03/16 01:44:59;;;;;;;0.43;0.43;;;7.80;99.90;;;;;;4937539;29;20470;-76
2022/03/16 01:47:27;;;;;;;0.50;0.50;;;7.80;99.90;;;;;;4937388;29;20458;-76
2022/03/16 01:49:55;;;;;;;0.40;0.40;;;7.80;99.90;;;;;;4937423;29;20451;-76
2022/03/16 01:52:24;;;;;;;4.13;1.00;;;7.80;99.90;;;;;;4937423;29;20820;-77
2022/03/16 01:54:51;;;;;;;3.20;0.40;;;7.80;99.90;;;;;;4937330;29;20458;-76
2022/03/16 01:57:20;;;;;;;0.73;0.73;;;7.70;99.90;;;;;;4937233;29;20459;-76
2022/03/16 01:59:47;;;;;;;0.30;0.30;;;7.80;99.90;;;;;;4936928;29;20977;-76
2022/03/16 02:02:14;;;;;;;1.47;0.40;;;7.80;99.90;;;;;;4936868;29;20487;-76
2022/03/16 02:04:42;;;;;;;2.30;0.63;;;7.80;99.90;;;;;;4937147;29;20455;-77
2022/03/16 02:07:09;;;;;;;0.30;0.30;;;7.80;99.90;;;;;;4936839;29;20955;-77
2022/03/16 02:09:36;;;;;;;0.70;0.53;;;7.80;99.90;;;;;;4936987;29;20479;-76
2022/03/16 02:12:03;;;;;;;0.40;0.40;;;7.80;99.90;;;;;;4936766;29;20446;-76
2022/03/16 02:14:31;;;;;;;0.70;0.70;;;7.70;99.90;;;;;;4936797;29;20842;-76
2022/03/16 02:16:58;;;;;;;0.73;0.70;;;7.70;99.90;;;;;;4936685;29;20959;-77
2022/03/16 02:19:25;;;;;;;0.40;0.40;;;7.60;99.90;;;;;;4936881;29;20482;-76
2022/03/16 02:21:57;;;;;;;0.30;0.20;;;7.50;99.90;;;;;;4936812;29;20495;-76
2022/03/16 02:24:25;;;;;;;1.17;1.13;;;7.50;99.90;;;;;;4936902;29;20494;-76
2022/03/16 02:26:52;;;;;;;0.60;0.60;;;7.50;99.90;;;;;;4936500;29;20950;-76
2022/03/16 02:29:20;;;;;;;0.40;0.30;;;7.50;99.90;;;;;;4936400;29;21046;-76
2022/03/16 02:31:47;;;;;;;1.07;0.37;;;7.50;99.90;;;;;;4936244;29;20906;-76
2022/03/16 02:34:14;;;;;;;1.20;1.07;;;7.50;99.90;;;;;;4936732;29;20431;-76
2022/03/16 02:36:40;;;;;;;1.47;0.47;;;7.50;99.90;;;;;;4936615;29;20455;-75
2022/03/16 02:39:07;;;;;;;7.30;0.67;;;7.50;99.90;;;;;;4936526;29;20478;-76
2022/03/16 02:41:36;;;;;;;0.40;0.40;;;7.50;99.90;;;;;;4936205;29;21013;-76
2022/03/16 02:44:02;;;;;;;0.93;0.93;;;7.50;99.90;;;;;;4936234;29;20467;-77
2022/03/16 02:46:29;;;;;;;0.77;0.60;;;7.50;99.90;;;;;;4936492;29;20478;-76
2022/03/16 02:48:56;;;;;;;0.97;0.97;;;7.50;99.90;;;;;;4936381;29;20490;-77
2022/03/16 02:51:23;;;;;;;1.37;0.80;;;7.40;99.90;;;;;;4936137;29;20947;-77
2022/03/16 02:53:52;;;;;;;2.10;2.00;;;7.40;99.90;;;;;;4936296;29;20466;-77
2022/03/16 02:56:19;;;;;;;1.93;1.83;;;7.50;99.90;;;;;;4936402;29;20487;-76
2022/03/16 02:58:47;;;;;;;0.77;0.77;;;7.50;99.90;;;;;;4936234;29;20487;-77
2022/03/16 03:01:13;;;;;;;0.73;0.73;;;7.60;99.90;;;;;;4936241;29;20491;-76
2022/03/16 03:03:40;;;;;;;0.87;0.40;;;7.60;99.90;;;;;;4935990;29;20458;-77
2022/03/16 03:06:07;;;;;;;0.50;0.50;;;7.60;99.90;;;;;;4936241;29;20455;-76
2022/03/16 03:08:33;;;;;;;1.00;0.90;;;7.60;99.90;;;;;;4936127;29;20471;-76
2022/03/16 03:11:00;;;;;;;0.70;0.70;;;7.50;99.90;;;;;;4936187;29;20455;-76
2022/03/16 03:13:27;;;;;;;0.60;0.60;;;7.50;99.90;;;;;;4936163;29;20459;-76
2022/03/16 03:15:55;;;;;;;3.17;0.57;;;7.50;99.90;;;;;;4936124;29;20451;-76
2022/03/16 03:18:22;;;;;;;0.50;0.50;;;7.50;99.90;;;;;;4935764;29;20482;-77
2022/03/16 03:20:49;;;;;;;0.37;0.37;;;7.50;99.90;;;;;;4936021;29;20568;-76
2022/03/16 03:23:15;;;;;;;0.50;0.50;;;7.50;99.90;;;;;;4935773;29;20454;-76
2022/03/16 03:25:42;;;;;;;0.80;0.80;;;7.50;99.90;;;;;;4936061;29;20451;-76
2022/03/16 03:28:09;;;;;;;0.50;0.50;;;7.50;99.90;;;;;;4935868;29;20451;-76
2022/03/16 03:30:36;;;;;;;1.07;0.97;;;7.60;99.90;;;;;;4936005;29;20474;-77
2022/03/16 03:33:04;;;;;;;0.70;0.70;;;7.50;99.90;;;;;;4935520;29;21014;-76
2022/03/16 03:35:30;;;;;;;0.63;0.63;;;7.50;99.90;;;;;;4935728;29;20450;-77
2022/03/16 03:37:57;;;;;;;1.03;0.90;;;7.50;99.90;;;;;;4935861;29;20487;-77
2022/03/16 03:40:24;;;;;;;0.70;0.70;;;7.50;99.90;;;;;;4935703;29;20923;-76
2022/03/16 03:42:51;;;;;;;4.10;1.20;;;7.50;99.90;;;;;;4935812;29;20498;-76
2022/03/16 03:45:18;;;;;;;1.03;1.03;;;7.50;99.90;;;;;;4935582;29;20459;-76
2022/03/16 03:47:45;;;;;;;0.60;0.50;;;7.50;99.90;;;;;;4935518;29;20470;-77
2022/03/16 03:50:13;;;;;;;0.50;0.50;;;7.50;99.90;;;;;;4935868;29;20462;-76
2022/03/16 03:52:40;;;;;;;0.70;0.50;;;7.50;99.90;;;;;;4935793;29;20462;-77
2022/03/16 03:55:07;;;;;;;1.33;0.73;;;7.50;99.90;;;;;;4935812;29;20454;-77
2022/03/16 03:57:34;;;;;;;1.03;0.60;;;7.40;99.90;;;;;;4935752;29;20464;-77
2022/03/16 04:00:01;;;;;;;4.43;0.97;;;7.40;99.90;;;;;;4935465;29;20897;-77
2022/03/16 04:02:27;;;;;;;0.30;0.30;;;7.40;99.90;;;;;;4935385;29;21033;-77
2022/03/16 04:04:54;;;;;;;0.93;0.73;;;7.40;99.90;;;;;;4936072;29;20454;-77
2022/03/16 04:07:22;;;;;;;1.03;1.03;;;7.40;99.90;;;;;;4939318;29;20454;-77
2022/03/16 04:09:50;;;;;;;0.70;0.60;;;7.40;99.90;;;;;;4939269;29;20447;-77
2022/03/16 04:12:17;;;;;;;1.10;0.90;;;7.40;99.90;;;;;;4939280;29;20447;-76
2022/03/16 04:14:44;;;;;;;1.40;1.30;;;7.40;99.90;;;;;;4939234;29;20454;-77
2022/03/16 04:17:10;;;;;;;0.40;0.40;;;7.40;99.90;;;;;;4939149;29;20451;-77
2022/03/16 04:19:37;;;;;;;1.80;0.60;;;7.40;99.90;;;;;;4939046;29;20982;-77
2022/03/16 04:22:04;;;;;;;0.87;0.87;;;7.50;99.90;;;;;;4939050;29;20483;-76
2022/03/16 04:24:32;;;;;;;0.40;0.40;;;7.40;99.90;;;;;;4938729;29;20443;-77
2022/03/16 04:26:59;;;;;;;0.97;0.97;;;7.40;99.90;;;;;;4938691;29;20538;-76
2022/03/16 04:29:25;;;;;;;0.70;0.60;;;7.40;99.90;;;;;;4938871;29;20486;-76
2022/03/16 04:31:52;;;;;;;3.50;0.83;;;7.40;99.90;;;;;;4938492;29;21002;-76
2022/03/16 04:34:19;;;;;;;2.87;0.70;;;7.50;99.90;;;;;;4938890;29;20435;-76
2022/03/16 04:36:46;;;;;;;1.63;0.80;;;7.50;99.90;;;;;;4938764;29;20455;-76
2022/03/16 04:39:12;;;;;;;5.57;0.90;;;7.40;99.90;;;;;;4938386;29;20990;-77
2022/03/16 04:41:41;;;;;;;0.70;0.50;;;7.40;99.90;;;;;;4938670;29;20538;-76
2022/03/16 04:44:07;;;;;;;1.53;1.53;;;7.40;99.90;;;;;;4938657;29;20455;-76
2022/03/16 04:46:34;;;;;;;1.13;1.13;;;7.40;99.90;;;;;;4939347;29;20555;-76
2022/03/16 04:49:01;;;;;;;1.00;0.57;;;7.40;99.90;;;;;;4938504;29;20475;-76
2022/03/16 04:51:28;;;;;;;1.13;0.90;;;7.40;99.90;;;;;;4938517;29;20451;-76
2022/03/16 04:53:54;;;;;;;0.50;0.40;;;7.40;99.90;;;;;;4938209;29;20455;-76
2022/03/16 04:56:21;;;;;;;0.50;0.50;;;7.40;99.90;;;;;;4938502;29;20455;-77
2022/03/16 04:58:49;;;;;;;0.50;0.50;;;7.40;99.90;;;;;;4938331;29;20471;-76
2022/03/16 05:01:16;;;;;;;1.83;1.73;;;7.30;99.90;;;;;;4938282;29;20482;-77
2022/03/16 05:03:42;;;;;;;3.60;0.50;;;7.30;99.90;;;;;;4938315;29;20455;-77
2022/03/16 05:06:09;;;;;;;1.70;1.60;;;7.30;99.90;;;;;;4937981;29;20451;-76
2022/03/16 05:08:37;;;;;;;3.80;1.07;;;7.40;99.90;;;;;;4938138;29;20482;-77
2022/03/16 05:11:05;;;;;;;0.50;0.30;;;7.40;99.90;;;;;;4938188;29;20459;-77
2022/03/16 05:13:32;;;;;;;0.77;0.77;;;7.40;99.90;;;;;;4938821;29;20458;-77
2022/03/16 05:16:00;;;;;;;0.50;0.50;;;7.40;99.90;;;;;;4937780;29;20459;-76
2022/03/16 05:18:27;;;;;;;1.50;1.50;;;7.40;99.90;;;;;;4937742;29;20502;-76
2022/03/16 05:20:53;;;;;;;2.10;1.13;;;7.50;99.90;;;;;;4938008;29;20478;-76
2022/03/16 05:23:20;;;;;;;1.67;0.90;;;7.50;99.90;;;;;;4937588;29;21021;-76
2022/03/16 05:25:47;;;;;;;0.50;0.50;;;7.50;99.90;;;;;;4937936;29;20479;-76
2022/03/16 05:28:14;;;;;;;0.97;0.77;;;7.50;99.90;;;;;;4937485;29;21016;-76
2022/03/16 05:30:40;;;;;;;0.90;0.70;;;7.50;99.90;;;;;;4937595;29;20789;-77
2022/03/16 05:33:09;;;;;;;2.37;1.63;;;7.50;99.90;;;;;;4937406;29;20475;-76
2022/03/16 05:35:35;;;;;;;0.70;0.70;;;7.60;99.90;;;;;;4938546;29;20455;-76
2022/03/16 05:38:05;;;;;;;0.50;0.30;;;7.50;99.90;;;;;;4937319;29;20979;-76
2022/03/16 05:40:32;;;;;;;0.77;0.77;;;7.50;99.90;;;;;;4937616;29;20974;-77
2022/03/16 05:42:59;;;;;;;0.40;0.40;;;7.60;99.90;;;;;;4937516;29;20479;-76
2022/03/16 05:45:26;;;;;;;1.90;1.80;;;7.60;99.90;;;;;;4937511;29;20456;-76
2022/03/16 05:47:53;;;;;;;0.30;0.30;;;7.60;99.90;;;;;;4937457;29;20486;-77
2022/03/16 05:50:21;;;;;;;0.73;0.73;;;7.60;99.90;;;;;;4937187;29;20458;-76
2022/03/16 05:52:48;;;;;;;1.80;1.70;;;7.70;99.90;;;;;;4937085;29;20969;-76
2022/03/16 05:55:15;;;;;;;0.70;0.70;;;7.80;99.90;;;;;;4937339;29;20466;-77
2022/03/16 05:57:44;;;;;;;0.50;0.37;;;7.90;99.90;;;;;;4937173;29;20490;-76
2022/03/16 06:00:14;;;;;;;2.20;1.70;;;7.80;99.90;;;;;;4937299;29;20458;-76
2022/03/16 06:02:41;;;;;;;0.90;0.90;;;7.70;99.90;;;;;;4937464;29;20482;-77
2022/03/16 06:05:09;;;;;;;0.77;0.77;;;7.60;99.90;;;;;;4937140;29;20462;-76
2022/03/16 06:07:38;;;;;;;0.90;0.50;;;7.60;99.90;;;;;;4936787;29;20467;-77
2022/03/16 06:10:06;;;;;;;1.53;0.70;;;7.60;99.90;;;;;;4937107;29;20459;-77
2022/03/16 06:12:32;;;;;;;2.00;1.90;;;7.60;99.90;;;;;;4937062;29;20451;-76
2022/03/16 06:14:59;;;;;;;1.97;1.87;;;7.60;99.90;;;;;;4936756;29;20435;-77
2022/03/16 06:17:26;;;;;;;0.30;0.30;;;7.60;99.90;;;;;;4936921;29;20451;-77
2022/03/16 06:19:52;;;;;;;0.87;0.53;;;7.70;99.90;;;;;;4936937;29;20458;-77
2022/03/16 06:22:21;;;;;;;0.70;0.70;;;7.70;99.90;;;;;;4936792;29;20489;-77
2022/03/16 06:24:49;;;;;;;1.10;1.10;;;7.60;99.90;;;;;;4936782;29;20510;-76
2022/03/16 06:27:16;;;;;;;0.50;0.50;;;7.60;99.90;;;;;;4936738;29;20451;-77
2022/03/16 06:29:42;;;;;;;1.33;0.57;;;7.60;99.90;;;;;;4936402;29;20482;-76
2022/03/16 06:32:09;;;;;;;0.70;0.70;;;7.60;99.90;;;;;;4936314;29;20487;-76
2022/03/16 06:34:36;;;;;;;0.50;0.50;;;7.60;99.90;;;;;;4936434;29;20946;-76
2022/03/16 06:37:03;;;;;;;8.20;0.90;;;7.60;99.90;;;;;;4936380;29;20443;-76
2022/03/16 06:39:30;;;;;;;0.83;0.83;;;7.50;99.90;;;;;;4936578;29;20478;-76
2022/03/16 06:41:58;;;;;;;1.20;1.20;;;7.50;99.90;;;;;;4936473;29;20486;-76
2022/03/16 06:44:25;;;;;;;1.27;1.17;;;7.60;99.90;;;;;;4936564;29;20439;-76
2022/03/16 06:46:52;;;;;;;0.50;0.50;;;7.60;99.90;;;;;;4937279;29;20447;-75
2022/03/16 06:49:19;;;;;;;2.20;0.83;;;7.60;99.90;;;;;;4936164;29;20983;-75
2022/03/16 06:51:45;;;;;;;1.67;1.57;;;7.60;99.90;;;;;;4936533;29;20435;-76
2022/03/16 06:54:12;;;;;;;1.37;1.13;;;7.60;99.90;;;;;;4936433;29;20436;-76
2022/03/16 06:56:39;;;;;;;0.70;0.70;;;7.60;99.90;;;;;;4936177;29;20442;-77
2022/03/16 06:59:07;;;;;;;3.17;0.60;;;7.50;99.90;;;;;;4936379;29;20475;-76
2022/03/16 07:01:34;;;;;;;0.60;0.60;;;7.60;99.90;;;;;;4936303;29;20436;-76
2022/03/16 07:04:00;;;;;;;5.50;0.67;;;7.60;99.90;;;;;;4936331;29;20443;-76
2022/03/16 07:06:27;;;;;;;1.37;1.17;;;7.60;99.90;;;;;;4936303;29;20442;-77
2022/03/16 07:08:54;;;;;;;1.50;1.27;;;7.70;99.90;;;;;;4936202;29;20467;-77
2022/03/16 07:11:21;;;;;;;3.47;2.40;;;7.70;99.90;;;;;;4935987;29;20442;-77
2022/03/16 07:16:30;;;;;;;1.33;1.27;;;7.70;99.90;;;;;;4934898;29;20518;-78
2022/03/16 07:18:57;;;;;;;0.70;0.60;;;7.80;99.90;;;;;;4936087;29;20467;-77
2022/03/16 07:21:24;;;;;;;0.90;0.70;;;7.90;99.90;;;;;;4935801;29;20938;-77
2022/03/16 07:23:50;;;;;;;2.87;0.43;;;8.00;99.90;;;;;;4935992;29;20490;-77
2022/03/16 07:26:17;;;;;;;1.23;1.13;;;8.00;99.90;;;;;;4936352;29;20447;-78
2022/03/16 07:28:44;;;;;;;2.23;0.70;;;8.00;99.90;;;;;;4935969;29;20833;-78
2022/03/16 07:31:11;;;;;;;1.83;1.20;;;7.90;99.90;;;;;;4935893;29;20462;-78
2022/03/16 07:33:39;;;;;;;0.73;0.50;;;7.90;99.90;;;;;;4935553;29;20865;-78
2022/03/16 07:36:06;;;;;;;0.33;0.33;;;8.00;99.90;;;;;;4935973;29;20459;-77
2022/03/16 07:38:32;;;;;;;0.30;0.30;;;8.00;99.90;;;;;;4935600;29;20472;-78
2022/03/16 07:41:02;;;;;;;0.50;0.50;;;8.00;99.90;;;;;;4937996;29;20445;-77
2022/03/16 07:43:29;;;;;;;1.53;0.97;;;8.10;99.90;;;;;;4939657;29;20974;-78
2022/03/16 07:45:56;;;;;;;1.60;1.50;;;8.10;99.90;;;;;;4939720;29;20459;-78
2022/03/16 07:48:23;;;;;;;3.60;0.77;;;8.20;99.90;;;;;;4939578;29;20522;-78
2022/03/16 07:50:51;;;;;;;1.23;0.83;;;8.20;99.90;;;;;;4939380;29;20923;-78
2022/03/16 07:53:18;;;;;;;3.53;1.07;;;8.20;99.90;;;;;;4939619;29;20431;-78
2022/03/16 07:55:47;;;;;;;2.17;1.70;;;8.40;99.90;;;;;;4939549;29;20454;-78
2022/03/16 07:58:14;;;;;;;0.70;0.70;;;8.40;99.90;;;;;;4939458;29;20493;-77
2022/03/16 08:00:41;;;;;;;0.50;0.50;;;8.40;99.90;;;;;;4939485;29;20447;-77
2022/03/16 08:03:08;;;;;;;9.20;0.97;;;8.40;99.90;;;;;;4939300;29;20479;-78
2022/03/16 08:05:35;;;;;;;0.77;0.77;;;8.50;99.90;;;;;;4939103;29;20939;-77
2022/03/16 08:08:03;;;;;;;1.53;1.47;;;8.60;99.90;;;;;;4939266;29;20474;-78
2022/03/16 08:10:30;;;;;;;1.23;1.07;;;8.70;99.90;;;;;;4939318;29;20490;-78
2022/03/16 08:12:56;;;;;;;8.10;1.17;;;8.60;99.90;;;;;;4939243;29;20452;-77
2022/03/16 08:15:23;;;;;;;1.00;0.90;;;8.70;99.90;;;;;;4938914;29;20947;-78
2022/03/16 08:17:50;;;;;;;0.70;0.70;;;8.70;99.90;;;;;;4939107;29;20471;-77
2022/03/16 08:20:17;;;;;;;0.70;0.70;;;8.70;99.90;;;;;;4939138;29;20447;-79
2022/03/16 08:22:44;;;;;;;2.20;1.13;;;8.70;99.90;;;;;;4939042;29;20486;-78
2022/03/16 08:25:13;;;;;;;1.23;1.13;;;8.80;99.90;;;;;;4938978;29;20463;-80
2022/03/16 08:27:40;;;;;;;1.97;0.70;;;9.00;99.90;;;;;;4938594;29;20475;-77
2022/03/16 08:30:09;;;;;;;1.03;0.93;;;9.10;99.90;;;;;;4938769;29;20439;-78
2022/03/16 08:32:36;;;;;;;5.77;1.27;;;9.10;99.90;;;;;;4938393;29;21016;-78
2022/03/16 08:35:03;;;;;;;2.83;1.73;;;9.10;99.90;;;;;;4938557;29;20465;-78
2022/03/16 08:37:30;;;;;;;1.67;0.97;;;9.10;99.90;;;;;;4938720;29;20462;-77
2022/03/16 08:39:56;;;;;;;2.50;1.77;;;9.20;99.90;;;;;;4938734;29;20451;-78
2022/03/16 08:42:24;;;;;;;1.63;1.53;;;9.20;99.90;;;;;;4938341;29;20849;-77
2022/03/16 08:44:53;;;;;;;4.57;2.73;;;9.20;99.90;;;;;;4938351;29;20816;-78
2022/03/16 08:47:21;;;;;;;1.23;1.23;;;9.30;99.90;;;;;;4938607;29;20439;-77
2022/03/16 08:49:50;;;;;;;1.67;0.70;;;9.30;99.90;;;;;;4938632;29;20437;-78
2022/03/16 08:52:16;;;;;;;1.67;1.63;;;9.20;99.90;;;;;;4938561;29;20439;-76
2022/03/16 08:54:44;;;;;;;3.10;1.63;;;9.30;99.90;;;;;;4938241;29;20442;-76
2022/03/16 08:57:11;;;;;;;0.90;0.90;;;9.20;99.90;;;;;;4938495;29;20543;-76
2022/03/16 08:59:39;;;;;;;1.93;0.90;;;9.20;99.90;;;;;;4938344;29;20475;-76
2022/03/16 09:02:07;;;;;;;1.33;1.03;;;9.20;99.90;;;;;;4938382;29;20431;-77
2022/03/16 09:04:34;;;;;;;7.70;1.53;;;9.40;99.90;;;;;;4938349;29;20427;-76
2022/03/16 09:07:02;;;;;;;0.60;0.60;;;9.40;99.90;;;;;;4938240;29;20514;-76
2022/03/16 09:09:29;;;;;;;2.60;0.50;;;9.40;99.90;;;;;;4938180;29;20475;-76
2022/03/16 09:11:56;;;;;;;2.63;2.47;;;9.50;99.90;;;;;;4937964;29;20438;-76
2022/03/16 09:14:22;;;;;;;3.80;1.03;;;9.60;99.90;;;;;;4938144;29;20427;-76
2022/03/16 09:16:51;;;;;;;0.50;0.37;;;9.50;99.90;;;;;;4938155;29;20442;-76
2022/03/16 09:19:20;;;;;;;5.20;1.60;;;9.50;99.90;;;;;;4938042;29;20557;-76
2022/03/16 09:21:47;;;;;;;2.50;1.00;;;9.50;99.90;;;;;;4938081;29;20802;-76
2022/03/16 09:24:14;;;;;;;3.70;1.33;;;9.70;99.90;;;;;;4937962;29;20478;-77
2022/03/16 09:26:40;;;;;;;1.77;1.00;;;9.70;99.90;;;;;;4937607;29;20499;-77
2022/03/16 09:29:08;;;;;;;1.30;1.20;;;9.70;99.90;;;;;;4937853;29;20467;-77
2022/03/16 09:31:35;;;;;;;1.27;1.17;;;9.60;99.90;;;;;;4937723;29;20440;-77
2022/03/16 09:34:05;;;;;;;1.33;1.33;;;9.60;99.90;;;;;;4938189;29;20462;-76
2022/03/16 09:36:32;;;;;;;0.50;0.50;;;9.70;99.90;;;;;;4937777;29;20498;-76
2022/03/16 09:38:59;;;;;;;0.90;0.90;;;9.60;99.90;;;;;;4937658;29;20471;-77
2022/03/16 09:41:27;;;;;;;17.83;1.33;;;9.70;99.90;;;;;;4937399;29;20427;-77
2022/03/16 09:43:54;;;;;;;0.50;0.50;;;9.70;99.90;;;;;;4937295;29;20831;-76
2022/03/16 09:46:26;;;;;;;1.27;0.83;;;9.70;99.90;;;;;;4937254;29;20903;-77
2022/03/16 09:48:54;;;;;;;0.50;0.50;;;9.70;99.90;;;;;;4937496;29;20475;-76
2022/03/16 09:51:22;;;;;;;0.70;0.70;;;9.60;99.90;;;;;;4937510;29;20503;-77
2022/03/16 09:53:49;;;;;;;0.73;0.73;;;9.50;99.90;;;;;;4937219;29;20424;-77
2022/03/16 09:56:18;;;;;;;2.33;0.57;;;9.50;99.90;;;;;;4937475;29;20443;-77
2022/03/16 09:58:45;;;;;;;0.70;0.70;;;9.50;99.90;;;;;;4937311;29;20467;-77
2022/03/16 10:01:12;;;;;;;0.70;0.70;;;9.60;99.90;;;;;;4937300;29;20440;-77
2022/03/16 10:03:40;;;;;;;1.20;1.13;;;9.70;99.90;;;;;;4936561;29;20494;-77
2022/03/16 10:06:08;;;;;;;1.77;1.03;;;9.90;99.90;;;;;;4937303;29;20431;-77
2022/03/16 10:08:37;;;;;;;2.93;0.67;;;10.00;99.90;;;;;;4937088;29;20459;-77
2022/03/16 10:13:53;;;;;;;3.37;1.90;;;10.00;99.90;;;;;;4937046;29;20406;-77
2022/03/16 10:16:21;;;;;;;1.33;1.20;;;10.00;99.90;;;;;;4937057;29;20506;-77
2022/03/16 10:18:55;;;;;;;0.60;0.60;;;10.10;99.90;;;;;;4936642;29;20974;-77
2022/03/16 10:21:22;;;;;;;0.70;0.70;;;10.30;99.90;;;;;;4936948;29;20436;-77
2022/03/16 10:23:51;;;;;;;0.67;0.67;;;10.20;99.90;;;;;;4936876;29;20471;-77
2022/03/16 10:26:21;;;;;;;6.33;0.97;;;10.40;99.90;;;;;;4936599;29;20801;-77
2022/03/16 10:28:48;;;;;;;10.03;1.03;;;10.50;99.90;;;;;;4936496;29;20482;-77
2022/03/16 10:31:17;;;;;;;1.20;1.10;;;10.60;99.90;;;;;;4936706;29;20882;-77
2022/03/16 10:33:48;;;;;;;0.93;0.93;;;10.70;99.90;;;;;;4936305;29;21030;-77
2022/03/16 10:36:16;;;;;;;0.60;0.43;;;10.60;99.90;;;;;;4936477;29;20946;-77
2022/03/16 10:38:45;;;;;;;1.67;1.03;;;10.40;99.90;;;;;;4936618;29;20548;-77
2022/03/16 10:46:46;;;;;;;0.83;0.83;;;10.40;99.90;;;;;;4936265;29;20450;-77
2022/03/16 10:49:16;;;;;;;0.80;0.80;;;10.70;99.90;;;;;;4936430;29;20475;-78
2022/03/16 10:51:44;;;;;;;2.80;0.57;;;10.70;99.90;;;;;;4936458;29;20443;-78
2022/03/16 10:54:14;;;;;;;2.57;2.10;;;10.60;99.90;;;;;;4936418;29;20432;-78
2022/03/16 10:56:43;;;;;;;1.00;1.00;;;10.60;99.90;;;;;;4936431;29;20458;-77
2022/03/16 10:59:11;;;;;;;5.63;1.77;;;10.70;99.90;;;;;;4935969;29;20921;-77
2022/03/16 11:01:39;;;;;;;1.10;1.10;;;10.80;99.90;;;;;;4936313;29;20435;-76
2022/03/16 11:04:08;;;;;;;1.17;0.70;;;10.90;99.90;;;;;;4935966;29;21001;-77
2022/03/16 11:06:36;;;;;;;5.20;0.80;;;11.10;99.90;;;;;;4935987;29;20482;-77
2022/03/16 11:09:03;;;;;;;0.70;0.70;;;11.30;99.90;;;;;;4935855;29;20971;-77
2022/03/16 11:14:17;;;;;;;0.80;0.80;;;11.50;99.90;;;;;;4936136;29;20453;-77
2022/03/16 11:16:46;;;;;;;1.23;0.97;;;11.30;99.90;;;;;;4936181;29;20449;-77
2022/03/16 11:19:18;;;;;;;3.30;0.77;;;11.30;99.90;;;;;;4936146;29;20528;-77
2022/03/16 11:21:54;;;;;;;1.90;1.80;;;11.30;99.90;;;;;;4935899;29;20422;-77
2022/03/16 11:24:23;;;;;;;0.67;0.67;;;11.30;99.90;;;;;;4935764;29;20982;-78
2022/03/16 11:27:12;;;;;;;1.17;0.90;;;11.20;99.90;;;;;;4936101;29;20446;-77
2022/03/16 11:29:50;;;;;;;0.63;0.50;;;11.20;99.90;;;;;;4936106;29;20482;-78
2022/03/16 11:32:19;;;;;;;4.63;1.00;;;11.20;99.90;;;;;;4935808;29;20482;-78
2022/03/16 11:34:54;;;;;;;1.73;1.07;;;11.10;99.90;;;;;;4936035;29;20447;-77
2022/03/16 11:37:33;;;;;;;2.67;1.60;;;11.10;99.90;;;;;;4935954;29;20446;-77
2022/03/16 11:40:09;;;;;;;2.40;1.13;;;11.20;99.90;;;;;;4936011;29;20412;-77
2022/03/16 11:42:37;;;;;;;1.60;0.77;;;11.40;99.90;;;;;;4935697;29;20439;-77
2022/03/16 11:45:41;;;;;;;1.60;1.00;;;11.60;99.90;;;;;;4935651;29;20467;-78
2022/03/16 11:48:44;;;;;;;1.43;1.33;;;11.80;99.90;;;;;;4935869;29;20541;-77
2022/03/16 11:51:23;;;;;;;1.93;1.20;;;12.10;99.90;;;;;;4925910;29;20466;-78
2022/03/16 11:54:11;;;;;;;1.47;1.20;;;12.20;99.90;;;;;;4935595;29;20533;-77
2022/03/16 11:56:50;;;;;;;5.03;1.30;;;12.20;99.90;;;;;;4935865;29;20463;-77
2022/03/16 11:59:40;;;;;;;4.57;2.23;;;12.10;99.90;;;;;;4935728;29;20481;-78
2022/03/16 12:02:20;;;;;;;1.70;0.53;;;12.00;99.90;;;;;;4935773;29;20527;-78
2022/03/16 12:04:49;;;;;;;4.87;1.57;;;12.00;99.90;;;;;;4935392;29;20974;-77
2022/03/16 12:07:19;;;;;;;1.60;1.23;;;12.00;99.90;;;;;;4935382;29;20973;-77
2022/03/16 12:09:49;;;;;;;2.07;1.43;;;12.00;99.90;;;;;;4935724;29;20440;-77
2022/03/16 12:15:18;;;;;;;0.83;0.60;;;12.00;99.90;;;;;;4935517;29;20407;-78
2022/03/16 12:18:23;;;;;;;1.30;1.00;;;11.80;99.90;;;;;;4935559;29;20477;-77
2022/03/16 12:20:56;;;;;;;1.93;0.90;;;11.90;99.90;;;;;;4935624;29;20800;-77
2022/03/16 12:23:52;;;;;;;1.47;0.60;;;11.80;99.90;;;;;;4935512;29;20450;-78
2022/03/16 12:26:26;;;;;;;2.33;1.30;;;11.80;99.90;;;;;;4937099;29;20494;-77
2022/03/16 12:29:03;;;;;;;1.60;0.97;;;11.90;99.90;;;;;;4938576;29;20474;-78
2022/03/16 12:31:31;;;;;;;4.10;1.50;;;12.00;99.90;;;;;;4938536;29;20987;-78
2022/03/16 12:34:00;;;;;;;5.77;1.97;;;11.90;99.90;;;;;;4939268;29;20836;-77
2022/03/16 12:36:28;;;;;;;0.70;0.70;;;11.90;99.90;;;;;;4938882;29;20798;-78
2022/03/16 12:38:57;;;;;;;4.57;1.07;;;11.90;99.90;;;;;;4938460;29;20471;-77
2022/03/16 12:44:11;;;;;;;2.73;1.33;;;12.10;99.90;;;;;;4938654;29;20989;-77
2022/03/16 12:46:47;;;;;;;2.83;1.00;;;12.20;99.90;;;;;;4938425;29;20983;-78
2022/03/16 12:49:17;;;;;;;3.17;0.77;;;12.30;99.90;;;;;;4938275;29;20994;-78
2022/03/16 12:51:45;;;;;;;7.40;0.87;;;12.20;99.90;;;;;;4938306;29;20912;-78
2022/03/16 12:54:13;;;;;;;1.30;1.20;;;12.20;99.90;;;;;;4938254;29;20812;-78
2022/03/16 12:56:41;;;;;;;1.63;1.33;;;12.40;99.90;;;;;;4938556;29;20442;-79
2022/03/16 12:59:09;;;;;;;0.70;0.70;;;12.40;99.90;;;;;;4938133;29;20471;-78
2022/03/16 13:01:36;;;;;;;3.47;1.63;;;12.50;99.90;;;;;;4938474;29;20491;-77
2022/03/16 13:04:04;;;;;;;2.10;1.00;;;12.50;99.90;;;;;;4938300;29;20475;-78
2022/03/16 13:06:34;;;;;;;1.37;0.50;;;12.50;99.90;;;;;;4938363;29;20442;-78
2022/03/16 13:09:04;;;;;;;1.57;0.67;;;12.50;99.90;;;;;;4938550;29;20475;-77
2022/03/16 13:11:32;;;;;;;1.70;1.23;;;12.40;99.90;;;;;;4939965;29;20896;-79
2022/03/16 13:14:04;;;;;;;4.63;2.30;;;12.30;99.90;;;;;;4938468;29;20432;-80
2022/03/16 13:16:37;;;;;;;1.27;0.80;;;12.50;99.90;;;;;;4938091;29;20450;-79
2022/03/16 13:19:05;;;;;;;1.53;0.87;;;12.40;99.90;;;;;;4937924;29;20479;-79
2022/03/16 13:21:34;;;;;;;4.27;2.70;;;12.40;99.90;;;;;;4937767;29;20558;-78